sensor_id;sensor_type;location;lat;lon;timestamp;P1;durP1;ratioP1;P2;durP2;ratioP2
39324;SDS011;25037;49.488;9.900;2023-04-03T00:00:35;2.10;;;0.98;;
39324;SDS011;25037;49.488;9.900;2023-04-03T00:03:02;2.65;;;1.02;;
39324;SDS011;25037;49.488;9.900;2023-04-03T00:05:29;2.83;;;1.20;;
39324;SDS011;25037;49.488;9.900;2023-04-03T00:07:56;3.67;;;1.52;;
39324;SDS011;25037;49.488;9.900;2023-04-03T00:10:22;3.25;;;1.08;;
39324;SDS011;25037;49.488;9.900;2023-04-03T00:12:49;4.45;;;1.30;;
39324;SDS011;25037;49.488;9.900;2023-04-03T00:15:15;3.05;;;0.90;;
39324;SDS011;25037;49.488;9.900;2023-04-03T00:17:42;3.45;;;1.30;;
39324;SDS011;25037;49.488;9.900;2023-04-03T00:20:09;3.72;;;1.10;;
39324;SDS011;25037;49.488;9.900;2023-04-03T00:22:36;2.97;;;1.20;;
39324;SDS011;25037;49.488;9.900;2023-04-03T00:25:03;4.25;;;0.93;;
39324;SDS011;25037;49.488;9.900;2023-04-03T00:27:30;3.15;;;1.40;;
39324;SDS011;25037;49.488;9.900;2023-04-03T00:29:57;3.65;;;1.10;;
39324;SDS011;25037;49.488;9.900;2023-04-03T00:32:23;4.78;;;1.80;;
39324;SDS011;25037;49.488;9.900;2023-04-03T00:34:50;3.78;;;1.33;;
39324;SDS011;25037;49.488;9.900;2023-04-03T00:37:17;3.28;;;1.27;;
39324;SDS011;25037;49.488;9.900;2023-04-03T00:39:43;3.90;;;1.42;;
39324;SDS011;25037;49.488;9.900;2023-04-03T00:42:10;2.80;;;1.08;;
39324;SDS011;25037;49.488;9.900;2023-04-03T00:47:04;3.58;;;1.23;;
39324;SDS011;25037;49.488;9.900;2023-04-03T00:49:33;4.00;;;1.25;;
39324;SDS011;25037;49.488;9.900;2023-04-03T00:52:01;3.45;;;1.23;;
39324;SDS011;25037;49.488;9.900;2023-04-03T00:54:28;2.78;;;1.17;;
39324;SDS011;25037;49.488;9.900;2023-04-03T00:56:55;3.05;;;1.25;;
39324;SDS011;25037;49.488;9.900;2023-04-03T00:59:25;3.65;;;1.50;;
39324;SDS011;25037;49.488;9.900;2023-04-03T01:01:55;3.20;;;1.40;;
39324;SDS011;25037;49.488;9.900;2023-04-03T01:04:33;3.05;;;1.08;;
39324;SDS011;25037;49.488;9.900;2023-04-03T01:07:18;3.13;;;1.20;;
39324;SDS011;25037;49.488;9.900;2023-04-03T01:09:53;3.83;;;1.17;;
39324;SDS011;25037;49.488;9.900;2023-04-03T01:12:25;5.07;;;1.58;;
39324;SDS011;25037;49.488;9.900;2023-04-03T01:14:55;2.97;;;1.50;;
39324;SDS011;25037;49.488;9.900;2023-04-03T01:20:16;3.42;;;1.20;;
39324;SDS011;25037;49.488;9.900;2023-04-03T01:25:46;4.65;;;1.50;;
39324;SDS011;25037;49.488;9.900;2023-04-03T01:33:48;4.15;;;1.80;;
39324;SDS011;25037;49.488;9.900;2023-04-03T01:36:18;4.07;;;1.60;;
39324;SDS011;25037;49.488;9.900;2023-04-03T01:38:56;3.75;;;1.58;;
39324;SDS011;25037;49.488;9.900;2023-04-03T01:41:24;5.82;;;1.50;;
39324;SDS011;25037;49.488;9.900;2023-04-03T01:43:51;3.90;;;1.42;;
39324;SDS011;25037;49.488;9.900;2023-04-03T01:46:19;4.35;;;1.50;;
39324;SDS011;25037;49.488;9.900;2023-04-03T01:48:46;3.67;;;1.60;;
39324;SDS011;25037;49.488;9.900;2023-04-03T01:51:12;4.53;;;1.58;;
39324;SDS011;25037;49.488;9.900;2023-04-03T01:53:39;4.65;;;1.65;;
39324;SDS011;25037;49.488;9.900;2023-04-03T01:56:06;4.90;;;1.40;;
39324;SDS011;25037;49.488;9.900;2023-04-03T01:58:33;4.95;;;2.00;;
39324;SDS011;25037;49.488;9.900;2023-04-03T02:01:00;3.25;;;1.60;;
39324;SDS011;25037;49.488;9.900;2023-04-03T02:03:27;3.22;;;1.50;;
39324;SDS011;25037;49.488;9.900;2023-04-03T02:05:54;3.15;;;1.70;;
39324;SDS011;25037;49.488;9.900;2023-04-03T02:08:21;4.28;;;1.90;;
39324;SDS011;25037;49.488;9.900;2023-04-03T02:10:48;3.50;;;1.70;;
39324;SDS011;25037;49.488;9.900;2023-04-03T02:13:16;4.00;;;2.08;;
39324;SDS011;25037;49.488;9.900;2023-04-03T02:15:43;4.35;;;1.75;;
39324;SDS011;25037;49.488;9.900;2023-04-03T02:18:11;6.43;;;2.35;;
39324;SDS011;25037;49.488;9.900;2023-04-03T02:20:38;4.90;;;1.98;;
39324;SDS011;25037;49.488;9.900;2023-04-03T02:23:05;3.38;;;1.58;;
39324;SDS011;25037;49.488;9.900;2023-04-03T02:25:32;3.88;;;1.63;;
39324;SDS011;25037;49.488;9.900;2023-04-03T02:28:01;2.42;;;1.60;;
39324;SDS011;25037;49.488;9.900;2023-04-03T02:30:28;4.25;;;1.65;;
39324;SDS011;25037;49.488;9.900;2023-04-03T02:32:55;4.47;;;1.90;;
39324;SDS011;25037;49.488;9.900;2023-04-03T02:35:22;4.00;;;1.65;;
39324;SDS011;25037;49.488;9.900;2023-04-03T02:37:48;5.15;;;1.95;;
39324;SDS011;25037;49.488;9.900;2023-04-03T02:40:15;5.45;;;1.85;;
39324;SDS011;25037;49.488;9.900;2023-04-03T02:42:42;4.30;;;1.70;;
39324;SDS011;25037;49.488;9.900;2023-04-03T02:45:08;4.60;;;1.95;;
39324;SDS011;25037;49.488;9.900;2023-04-03T02:47:35;4.88;;;1.70;;
39324;SDS011;25037;49.488;9.900;2023-04-03T02:50:02;4.00;;;1.90;;
39324;SDS011;25037;49.488;9.900;2023-04-03T02:52:29;4.68;;;2.00;;
39324;SDS011;25037;49.488;9.900;2023-04-03T02:54:55;4.68;;;1.98;;
39324;SDS011;25037;49.488;9.900;2023-04-03T02:57:22;3.65;;;1.70;;
39324;SDS011;25037;49.488;9.900;2023-04-03T02:59:49;3.92;;;2.08;;
39324;SDS011;25037;49.488;9.900;2023-04-03T03:02:16;5.32;;;1.90;;
39324;SDS011;25037;49.488;9.900;2023-04-03T03:04:42;3.45;;;1.67;;
39324;SDS011;25037;49.488;9.900;2023-04-03T03:07:09;3.70;;;1.48;;
39324;SDS011;25037;49.488;9.900;2023-04-03T03:09:37;4.00;;;1.73;;
39324;SDS011;25037;49.488;9.900;2023-04-03T03:12:04;6.15;;;1.80;;
39324;SDS011;25037;49.488;9.900;2023-04-03T03:14:31;4.38;;;1.50;;
39324;SDS011;25037;49.488;9.900;2023-04-03T03:16:57;5.03;;;1.58;;
39324;SDS011;25037;49.488;9.900;2023-04-03T03:19:24;5.97;;;1.95;;
39324;SDS011;25037;49.488;9.900;2023-04-03T03:21:51;3.90;;;1.70;;
39324;SDS011;25037;49.488;9.900;2023-04-03T03:24:18;3.38;;;1.92;;
39324;SDS011;25037;49.488;9.900;2023-04-03T03:26:44;5.00;;;2.00;;
39324;SDS011;25037;49.488;9.900;2023-04-03T03:29:11;4.22;;;2.22;;
39324;SDS011;25037;49.488;9.900;2023-04-03T03:31:37;3.55;;;2.13;;
39324;SDS011;25037;49.488;9.900;2023-04-03T03:34:04;5.22;;;1.73;;
39324;SDS011;25037;49.488;9.900;2023-04-03T03:36:31;3.58;;;1.50;;
39324;SDS011;25037;49.488;9.900;2023-04-03T03:38:58;3.72;;;1.52;;
39324;SDS011;25037;49.488;9.900;2023-04-03T03:41:25;3.45;;;1.60;;
39324;SDS011;25037;49.488;9.900;2023-04-03T03:43:51;3.72;;;2.13;;
39324;SDS011;25037;49.488;9.900;2023-04-03T03:46:18;6.25;;;2.15;;
39324;SDS011;25037;49.488;9.900;2023-04-03T03:48:44;5.75;;;2.17;;
39324;SDS011;25037;49.488;9.900;2023-04-03T03:51:11;5.35;;;1.90;;
39324;SDS011;25037;49.488;9.900;2023-04-03T03:53:38;4.07;;;1.70;;
39324;SDS011;25037;49.488;9.900;2023-04-03T03:56:05;4.45;;;1.55;;
39324;SDS011;25037;49.488;9.900;2023-04-03T03:58:32;3.72;;;1.80;;
39324;SDS011;25037;49.488;9.900;2023-04-03T04:01:02;6.15;;;2.00;;
39324;SDS011;25037;49.488;9.900;2023-04-03T04:03:29;3.92;;;1.83;;
39324;SDS011;25037;49.488;9.900;2023-04-03T04:05:56;3.85;;;1.67;;
39324;SDS011;25037;49.488;9.900;2023-04-03T04:08:23;3.75;;;1.65;;
39324;SDS011;25037;49.488;9.900;2023-04-03T04:10:50;4.05;;;1.85;;
39324;SDS011;25037;49.488;9.900;2023-04-03T04:13:17;3.38;;;1.90;;
39324;SDS011;25037;49.488;9.900;2023-04-03T04:15:44;3.95;;;1.92;;
39324;SDS011;25037;49.488;9.900;2023-04-03T04:18:10;5.22;;;2.38;;
39324;SDS011;25037;49.488;9.900;2023-04-03T04:20:37;6.25;;;3.03;;
39324;SDS011;25037;49.488;9.900;2023-04-03T04:23:04;8.98;;;2.50;;
39324;SDS011;25037;49.488;9.900;2023-04-03T04:25:30;4.47;;;2.35;;
39324;SDS011;25037;49.488;9.900;2023-04-03T04:27:57;5.57;;;2.20;;
39324;SDS011;25037;49.488;9.900;2023-04-03T04:30:24;3.83;;;2.40;;
39324;SDS011;25037;49.488;9.900;2023-04-03T04:32:50;5.65;;;2.70;;
39324;SDS011;25037;49.488;9.900;2023-04-03T04:35:17;4.75;;;2.50;;
39324;SDS011;25037;49.488;9.900;2023-04-03T04:37:44;4.97;;;2.63;;
39324;SDS011;25037;49.488;9.900;2023-04-03T04:40:11;4.40;;;2.85;;
39324;SDS011;25037;49.488;9.900;2023-04-03T04:42:37;5.50;;;2.65;;
39324;SDS011;25037;49.488;9.900;2023-04-03T04:45:04;4.88;;;2.40;;
39324;SDS011;25037;49.488;9.900;2023-04-03T04:47:31;5.43;;;2.47;;
39324;SDS011;25037;49.488;9.900;2023-04-03T04:49:58;7.95;;;3.13;;
39324;SDS011;25037;49.488;9.900;2023-04-03T04:52:25;5.18;;;2.60;;
39324;SDS011;25037;49.488;9.900;2023-04-03T04:54:51;4.28;;;2.40;;
39324;SDS011;25037;49.488;9.900;2023-04-03T04:57:18;7.57;;;4.38;;
39324;SDS011;25037;49.488;9.900;2023-04-03T04:59:45;4.38;;;2.50;;
39324;SDS011;25037;49.488;9.900;2023-04-03T05:02:12;6.93;;;2.53;;
39324;SDS011;25037;49.488;9.900;2023-04-03T05:04:38;5.50;;;2.63;;
39324;SDS011;25037;49.488;9.900;2023-04-03T05:07:05;3.63;;;2.50;;
39324;SDS011;25037;49.488;9.900;2023-04-03T05:09:32;6.43;;;2.80;;
39324;SDS011;25037;49.488;9.900;2023-04-03T05:11:58;6.40;;;3.00;;
39324;SDS011;25037;49.488;9.900;2023-04-03T05:14:25;7.60;;;3.22;;
39324;SDS011;25037;49.488;9.900;2023-04-03T05:16:52;7.90;;;3.00;;
39324;SDS011;25037;49.488;9.900;2023-04-03T05:19:20;5.85;;;2.92;;
39324;SDS011;25037;49.488;9.900;2023-04-03T05:21:47;5.75;;;3.05;;
39324;SDS011;25037;49.488;9.900;2023-04-03T05:24:14;5.32;;;3.30;;
39324;SDS011;25037;49.488;9.900;2023-04-03T05:26:42;5.05;;;2.90;;
39324;SDS011;25037;49.488;9.900;2023-04-03T05:29:09;5.97;;;3.50;;
39324;SDS011;25037;49.488;9.900;2023-04-03T05:31:36;6.65;;;3.13;;
39324;SDS011;25037;49.488;9.900;2023-04-03T05:34:03;4.45;;;2.50;;
39324;SDS011;25037;49.488;9.900;2023-04-03T05:36:30;9.38;;;3.10;;
39324;SDS011;25037;49.488;9.900;2023-04-03T05:38:57;5.90;;;3.15;;
39324;SDS011;25037;49.488;9.900;2023-04-03T05:41:24;8.77;;;3.47;;
39324;SDS011;25037;49.488;9.900;2023-04-03T05:43:51;4.78;;;2.85;;
39324;SDS011;25037;49.488;9.900;2023-04-03T05:46:18;8.82;;;4.22;;
39324;SDS011;25037;49.488;9.900;2023-04-03T05:48:46;5.82;;;2.97;;
39324;SDS011;25037;49.488;9.900;2023-04-03T05:51:14;5.38;;;2.80;;
39324;SDS011;25037;49.488;9.900;2023-04-03T05:53:43;5.85;;;2.80;;
39324;SDS011;25037;49.488;9.900;2023-04-03T05:56:10;5.30;;;2.70;;
39324;SDS011;25037;49.488;9.900;2023-04-03T05:58:37;4.68;;;2.47;;
39324;SDS011;25037;49.488;9.900;2023-04-03T06:01:04;5.60;;;2.55;;
39324;SDS011;25037;49.488;9.900;2023-04-03T06:03:31;5.95;;;2.95;;
39324;SDS011;25037;49.488;9.900;2023-04-03T06:05:58;6.68;;;2.83;;
39324;SDS011;25037;49.488;9.900;2023-04-03T06:08:25;6.68;;;2.80;;
39324;SDS011;25037;49.488;9.900;2023-04-03T06:10:52;6.90;;;2.50;;
39324;SDS011;25037;49.488;9.900;2023-04-03T06:13:18;5.00;;;2.40;;
39324;SDS011;25037;49.488;9.900;2023-04-03T06:15:45;6.85;;;2.58;;
39324;SDS011;25037;49.488;9.900;2023-04-03T06:18:12;5.70;;;2.65;;
39324;SDS011;25037;49.488;9.900;2023-04-03T06:20:39;7.53;;;3.22;;
39324;SDS011;25037;49.488;9.900;2023-04-03T06:23:06;5.03;;;2.70;;
39324;SDS011;25037;49.488;9.900;2023-04-03T06:25:34;3.88;;;2.03;;
39324;SDS011;25037;49.488;9.900;2023-04-03T06:28:00;6.70;;;2.67;;
39324;SDS011;25037;49.488;9.900;2023-04-03T06:30:27;4.15;;;2.30;;
39324;SDS011;25037;49.488;9.900;2023-04-03T06:32:54;4.22;;;2.53;;
39324;SDS011;25037;49.488;9.900;2023-04-03T06:35:21;4.40;;;2.22;;
39324;SDS011;25037;49.488;9.900;2023-04-03T06:37:49;5.10;;;2.40;;
39324;SDS011;25037;49.488;9.900;2023-04-03T06:40:21;6.72;;;2.08;;
39324;SDS011;25037;49.488;9.900;2023-04-03T06:42:49;4.77;;;1.97;;
39324;SDS011;25037;49.488;9.900;2023-04-03T06:45:16;5.07;;;2.20;;
39324;SDS011;25037;49.488;9.900;2023-04-03T06:47:43;5.75;;;2.35;;
39324;SDS011;25037;49.488;9.900;2023-04-03T06:50:11;7.70;;;1.98;;
39324;SDS011;25037;49.488;9.900;2023-04-03T06:52:40;5.20;;;2.47;;
39324;SDS011;25037;49.488;9.900;2023-04-03T06:55:07;5.22;;;1.77;;
39324;SDS011;25037;49.488;9.900;2023-04-03T06:57:35;5.85;;;2.42;;
39324;SDS011;25037;49.488;9.900;2023-04-03T07:00:03;4.43;;;1.80;;
39324;SDS011;25037;49.488;9.900;2023-04-03T07:02:31;7.10;;;2.47;;
39324;SDS011;25037;49.488;9.900;2023-04-03T07:04:58;6.20;;;2.30;;
39324;SDS011;25037;49.488;9.900;2023-04-03T07:07:25;7.93;;;2.40;;
39324;SDS011;25037;49.488;9.900;2023-04-03T07:09:51;5.63;;;2.30;;
39324;SDS011;25037;49.488;9.900;2023-04-03T07:12:18;4.80;;;2.35;;
39324;SDS011;25037;49.488;9.900;2023-04-03T07:14:44;6.15;;;2.10;;
39324;SDS011;25037;49.488;9.900;2023-04-03T07:17:11;4.53;;;2.22;;
39324;SDS011;25037;49.488;9.900;2023-04-03T07:19:38;7.40;;;2.15;;
39324;SDS011;25037;49.488;9.900;2023-04-03T07:22:05;5.68;;;2.05;;
39324;SDS011;25037;49.488;9.900;2023-04-03T07:24:32;5.57;;;2.03;;
39324;SDS011;25037;49.488;9.900;2023-04-03T07:26:59;9.23;;;2.92;;
39324;SDS011;25037;49.488;9.900;2023-04-03T07:29:26;4.72;;;2.17;;
39324;SDS011;25037;49.488;9.900;2023-04-03T07:31:53;6.05;;;2.00;;
39324;SDS011;25037;49.488;9.900;2023-04-03T07:34:21;3.78;;;2.10;;
39324;SDS011;25037;49.488;9.900;2023-04-03T07:36:48;5.82;;;2.17;;
39324;SDS011;25037;49.488;9.900;2023-04-03T07:39:14;3.70;;;2.28;;
39324;SDS011;25037;49.488;9.900;2023-04-03T07:41:41;5.70;;;2.10;;
39324;SDS011;25037;49.488;9.900;2023-04-03T07:44:08;5.45;;;2.20;;
39324;SDS011;25037;49.488;9.900;2023-04-03T07:46:36;7.85;;;2.15;;
39324;SDS011;25037;49.488;9.900;2023-04-03T07:49:03;3.70;;;1.80;;
39324;SDS011;25037;49.488;9.900;2023-04-03T07:51:30;7.25;;;2.47;;
39324;SDS011;25037;49.488;9.900;2023-04-03T07:53:57;4.25;;;1.95;;
39324;SDS011;25037;49.488;9.900;2023-04-03T07:56:24;3.42;;;1.95;;
39324;SDS011;25037;49.488;9.900;2023-04-03T07:58:51;4.43;;;1.90;;
39324;SDS011;25037;49.488;9.900;2023-04-03T08:01:18;5.78;;;1.90;;
39324;SDS011;25037;49.488;9.900;2023-04-03T08:03:44;7.65;;;2.20;;
39324;SDS011;25037;49.488;9.900;2023-04-03T08:06:11;4.85;;;1.95;;
39324;SDS011;25037;49.488;9.900;2023-04-03T08:08:42;3.15;;;1.58;;
39324;SDS011;25037;49.488;9.900;2023-04-03T08:11:09;6.28;;;2.75;;
39324;SDS011;25037;49.488;9.900;2023-04-03T08:13:37;4.30;;;1.85;;
39324;SDS011;25037;49.488;9.900;2023-04-03T08:16:08;4.53;;;1.98;;
39324;SDS011;25037;49.488;9.900;2023-04-03T08:18:36;5.70;;;2.35;;
39324;SDS011;25037;49.488;9.900;2023-04-03T08:21:07;4.88;;;2.08;;
39324;SDS011;25037;49.488;9.900;2023-04-03T08:23:35;4.95;;;2.10;;
39324;SDS011;25037;49.488;9.900;2023-04-03T08:26:13;5.35;;;1.63;;
39324;SDS011;25037;49.488;9.900;2023-04-03T08:28:41;4.60;;;1.70;;
39324;SDS011;25037;49.488;9.900;2023-04-03T08:31:10;6.50;;;2.58;;
39324;SDS011;25037;49.488;9.900;2023-04-03T08:33:39;5.20;;;1.40;;
39324;SDS011;25037;49.488;9.900;2023-04-03T08:36:07;6.68;;;1.92;;
39324;SDS011;25037;49.488;9.900;2023-04-03T08:38:41;4.13;;;1.95;;
39324;SDS011;25037;49.488;9.900;2023-04-03T08:41:14;7.18;;;1.70;;
39324;SDS011;25037;49.488;9.900;2023-04-03T08:44:29;5.05;;;2.10;;
39324;SDS011;25037;49.488;9.900;2023-04-03T08:47:18;6.68;;;1.88;;
39324;SDS011;25037;49.488;9.900;2023-04-03T08:50:00;5.38;;;2.10;;
39324;SDS011;25037;49.488;9.900;2023-04-03T08:52:36;5.30;;;1.60;;
39324;SDS011;25037;49.488;9.900;2023-04-03T08:58:02;4.60;;;2.03;;
39324;SDS011;25037;49.488;9.900;2023-04-03T09:00:34;4.72;;;2.00;;
39324;SDS011;25037;49.488;9.900;2023-04-03T09:03:14;2.67;;;1.42;;
39324;SDS011;25037;49.488;9.900;2023-04-03T09:05:55;5.60;;;1.75;;
39324;SDS011;25037;49.488;9.900;2023-04-03T09:11:24;4.18;;;1.70;;
39324;SDS011;25037;49.488;9.900;2023-04-03T09:16:56;4.32;;;2.00;;
39324;SDS011;25037;49.488;9.900;2023-04-03T09:22:03;6.13;;;2.05;;
39324;SDS011;25037;49.488;9.900;2023-04-03T09:24:46;4.00;;;1.67;;
39324;SDS011;25037;49.488;9.900;2023-04-03T09:27:18;3.53;;;1.80;;
39324;SDS011;25037;49.488;9.900;2023-04-03T09:29:45;5.13;;;1.83;;
39324;SDS011;25037;49.488;9.900;2023-04-03T09:32:32;4.43;;;1.55;;
39324;SDS011;25037;49.488;9.900;2023-04-03T09:35:04;3.40;;;1.80;;
39324;SDS011;25037;49.488;9.900;2023-04-03T09:40:43;3.35;;;1.52;;
39324;SDS011;25037;49.488;9.900;2023-04-03T09:43:31;5.63;;;1.65;;
39324;SDS011;25037;49.488;9.900;2023-04-03T09:48:55;3.10;;;1.30;;
39324;SDS011;25037;49.488;9.900;2023-04-03T09:51:34;5.07;;;1.60;;
39324;SDS011;25037;49.488;9.900;2023-04-03T09:54:01;2.97;;;1.35;;
39324;SDS011;25037;49.488;9.900;2023-04-03T09:56:57;4.55;;;1.40;;
39324;SDS011;25037;49.488;9.900;2023-04-03T09:59:29;2.63;;;1.23;;
39324;SDS011;25037;49.488;9.900;2023-04-03T10:04:57;3.53;;;1.20;;
39324;SDS011;25037;49.488;9.900;2023-04-03T10:07:35;4.53;;;1.40;;
39324;SDS011;25037;49.488;9.900;2023-04-03T10:12:44;6.65;;;1.98;;
39324;SDS011;25037;49.488;9.900;2023-04-03T10:15:15;4.95;;;1.10;;
39324;SDS011;25037;49.488;9.900;2023-04-03T10:20:43;3.78;;;1.27;;
39324;SDS011;25037;49.488;9.900;2023-04-03T10:35:02;3.03;;;1.40;;
39324;SDS011;25037;49.488;9.900;2023-04-03T10:37:50;4.57;;;1.27;;
39324;SDS011;25037;49.488;9.900;2023-04-03T10:40:47;3.10;;;1.30;;
39324;SDS011;25037;49.488;9.900;2023-04-03T10:43:36;4.03;;;1.83;;
39324;SDS011;25037;49.488;9.900;2023-04-03T10:46:13;5.57;;;1.63;;
39324;SDS011;25037;49.488;9.900;2023-04-03T10:51:29;2.72;;;1.40;;
39324;SDS011;25037;49.488;9.900;2023-04-03T10:54:13;5.20;;;1.50;;
39324;SDS011;25037;49.488;9.900;2023-04-03T10:56:54;3.30;;;1.50;;
39324;SDS011;25037;49.488;9.900;2023-04-03T11:04:46;4.55;;;1.45;;
39324;SDS011;25037;49.488;9.900;2023-04-03T11:07:20;4.63;;;1.52;;
39324;SDS011;25037;49.488;9.900;2023-04-03T11:09:54;4.25;;;1.15;;
39324;SDS011;25037;49.488;9.900;2023-04-03T11:12:26;3.60;;;1.98;;
39324;SDS011;25037;49.488;9.900;2023-04-03T11:15:02;3.38;;;1.58;;
39324;SDS011;25037;49.488;9.900;2023-04-03T11:17:38;7.47;;;1.52;;
39324;SDS011;25037;49.488;9.900;2023-04-03T11:20:15;3.30;;;1.15;;
39324;SDS011;25037;49.488;9.900;2023-04-03T11:23:12;4.07;;;1.38;;
39324;SDS011;25037;49.488;9.900;2023-04-03T11:26:08;3.80;;;1.40;;
39324;SDS011;25037;49.488;9.900;2023-04-03T11:28:38;3.70;;;1.20;;
39324;SDS011;25037;49.488;9.900;2023-04-03T11:34:24;4.00;;;1.65;;
39324;SDS011;25037;49.488;9.900;2023-04-03T11:37:11;5.22;;;1.40;;
39324;SDS011;25037;49.488;9.900;2023-04-03T11:39:46;3.90;;;1.25;;
39324;SDS011;25037;49.488;9.900;2023-04-03T11:42:25;3.42;;;1.25;;
39324;SDS011;25037;49.488;9.900;2023-04-03T11:47:54;2.22;;;1.10;;
39324;SDS011;25037;49.488;9.900;2023-04-03T11:50:41;3.65;;;1.40;;
39324;SDS011;25037;49.488;9.900;2023-04-03T11:55:43;4.63;;;1.40;;
39324;SDS011;25037;49.488;9.900;2023-04-03T11:58:14;3.72;;;1.50;;
39324;SDS011;25037;49.488;9.900;2023-04-03T12:05:56;2.38;;;0.90;;
39324;SDS011;25037;49.488;9.900;2023-04-03T12:11:13;2.70;;;1.10;;
39324;SDS011;25037;49.488;9.900;2023-04-03T12:16:29;3.95;;;1.55;;
39324;SDS011;25037;49.488;9.900;2023-04-03T12:29:27;4.45;;;1.30;;
39324;SDS011;25037;49.488;9.900;2023-04-03T12:32:00;5.07;;;1.40;;
39324;SDS011;25037;49.488;9.900;2023-04-03T12:42:56;3.00;;;1.50;;
39324;SDS011;25037;49.488;9.900;2023-04-03T12:45:29;3.30;;;1.30;;
39324;SDS011;25037;49.488;9.900;2023-04-03T12:48:15;4.68;;;1.42;;
39324;SDS011;25037;49.488;9.900;2023-04-03T12:50:45;3.92;;;1.48;;
39324;SDS011;25037;49.488;9.900;2023-04-03T12:53:15;3.15;;;1.50;;
39324;SDS011;25037;49.488;9.900;2023-04-03T12:55:56;4.13;;;1.35;;
39324;SDS011;25037;49.488;9.900;2023-04-03T12:58:42;3.60;;;1.50;;
39324;SDS011;25037;49.488;9.900;2023-04-03T13:01:10;3.90;;;1.30;;
39324;SDS011;25037;49.488;9.900;2023-04-03T13:03:40;3.65;;;1.23;;
39324;SDS011;25037;49.488;9.900;2023-04-03T13:06:14;3.63;;;2.05;;
39324;SDS011;25037;49.488;9.900;2023-04-03T13:08:58;3.25;;;1.27;;
39324;SDS011;25037;49.488;9.900;2023-04-03T13:11:33;3.97;;;1.63;;
39324;SDS011;25037;49.488;9.900;2023-04-03T13:14:17;4.65;;;1.45;;
39324;SDS011;25037;49.488;9.900;2023-04-03T13:16:58;3.42;;;1.17;;
39324;SDS011;25037;49.488;9.900;2023-04-03T13:19:30;2.67;;;1.27;;
39324;SDS011;25037;49.488;9.900;2023-04-03T13:25:10;2.60;;;1.27;;
39324;SDS011;25037;49.488;9.900;2023-04-03T13:27:39;3.38;;;1.33;;
39324;SDS011;25037;49.488;9.900;2023-04-03T13:30:27;4.07;;;1.38;;
39324;SDS011;25037;49.488;9.900;2023-04-03T13:33:01;2.72;;;1.10;;
39324;SDS011;25037;49.488;9.900;2023-04-03T13:35:54;2.60;;;1.30;;
39324;SDS011;25037;49.488;9.900;2023-04-03T13:38:23;3.85;;;2.15;;
39324;SDS011;25037;49.488;9.900;2023-04-03T13:40:53;3.22;;;1.30;;
39324;SDS011;25037;49.488;9.900;2023-04-03T13:43:28;3.17;;;1.13;;
39324;SDS011;25037;49.488;9.900;2023-04-03T13:48:35;2.50;;;1.10;;
39324;SDS011;25037;49.488;9.900;2023-04-03T13:51:18;2.95;;;1.10;;
39324;SDS011;25037;49.488;9.900;2023-04-03T13:56:39;3.38;;;1.13;;
39324;SDS011;25037;49.488;9.900;2023-04-03T14:01:40;2.97;;;1.40;;
39324;SDS011;25037;49.488;9.900;2023-04-03T14:04:14;2.30;;;1.17;;
39324;SDS011;25037;49.488;9.900;2023-04-03T14:06:48;2.30;;;1.10;;
39324;SDS011;25037;49.488;9.900;2023-04-03T14:09:16;4.03;;;1.00;;
39324;SDS011;25037;49.488;9.900;2023-04-03T14:11:44;4.15;;;1.42;;
39324;SDS011;25037;49.488;9.900;2023-04-03T14:14:14;2.70;;;1.00;;
39324;SDS011;25037;49.488;9.900;2023-04-03T14:16:49;3.47;;;1.50;;
39324;SDS011;25037;49.488;9.900;2023-04-03T14:19:20;3.22;;;1.52;;
39324;SDS011;25037;49.488;9.900;2023-04-03T14:21:59;4.50;;;1.00;;
39324;SDS011;25037;49.488;9.900;2023-04-03T14:24:29;3.97;;;0.93;;
39324;SDS011;25037;49.488;9.900;2023-04-03T14:26:56;2.85;;;0.93;;
39324;SDS011;25037;49.488;9.900;2023-04-03T14:29:23;4.50;;;1.10;;
39324;SDS011;25037;49.488;9.900;2023-04-03T14:31:50;2.05;;;0.85;;
39324;SDS011;25037;49.488;9.900;2023-04-03T14:34:29;2.45;;;1.10;;
39324;SDS011;25037;49.488;9.900;2023-04-03T14:36:56;3.67;;;1.10;;
39324;SDS011;25037;49.488;9.900;2023-04-03T14:39:23;2.35;;;1.00;;
39324;SDS011;25037;49.488;9.900;2023-04-03T14:41:49;3.80;;;1.05;;
39324;SDS011;25037;49.488;9.900;2023-04-03T14:44:16;3.55;;;1.13;;
39324;SDS011;25037;49.488;9.900;2023-04-03T14:46:43;2.58;;;1.15;;
39324;SDS011;25037;49.488;9.900;2023-04-03T14:49:24;2.85;;;1.20;;
39324;SDS011;25037;49.488;9.900;2023-04-03T14:51:54;2.30;;;0.90;;
39324;SDS011;25037;49.488;9.900;2023-04-03T14:54:22;2.50;;;1.00;;
39324;SDS011;25037;49.488;9.900;2023-04-03T14:56:54;3.20;;;1.08;;
39324;SDS011;25037;49.488;9.900;2023-04-03T14:59:23;4.78;;;1.33;;
39324;SDS011;25037;49.488;9.900;2023-04-03T15:01:50;3.17;;;1.13;;
39324;SDS011;25037;49.488;9.900;2023-04-03T15:04:18;2.60;;;1.00;;
39324;SDS011;25037;49.488;9.900;2023-04-03T15:06:47;4.65;;;1.10;;
39324;SDS011;25037;49.488;9.900;2023-04-03T15:09:18;3.53;;;0.98;;
39324;SDS011;25037;49.488;9.900;2023-04-03T15:11:50;4.53;;;1.05;;
39324;SDS011;25037;49.488;9.900;2023-04-03T15:14:18;2.65;;;1.00;;
39324;SDS011;25037;49.488;9.900;2023-04-03T15:17:01;3.20;;;0.93;;
39324;SDS011;25037;49.488;9.900;2023-04-03T15:19:30;4.82;;;1.08;;
39324;SDS011;25037;49.488;9.900;2023-04-03T15:22:01;1.73;;;0.63;;
39324;SDS011;25037;49.488;9.900;2023-04-03T15:24:29;2.90;;;1.10;;
39324;SDS011;25037;49.488;9.900;2023-04-03T15:26:56;2.83;;;1.25;;
39324;SDS011;25037;49.488;9.900;2023-04-03T15:29:23;4.10;;;1.13;;
39324;SDS011;25037;49.488;9.900;2023-04-03T15:31:49;4.65;;;0.88;;
39324;SDS011;25037;49.488;9.900;2023-04-03T15:34:19;4.15;;;1.35;;
39324;SDS011;25037;49.488;9.900;2023-04-03T15:36:48;2.42;;;1.05;;
39324;SDS011;25037;49.488;9.900;2023-04-03T15:39:15;2.75;;;0.90;;
39324;SDS011;25037;49.488;9.900;2023-04-03T15:41:42;2.90;;;0.98;;
39324;SDS011;25037;49.488;9.900;2023-04-03T15:44:09;1.70;;;0.70;;
39324;SDS011;25037;49.488;9.900;2023-04-03T15:46:36;3.00;;;1.00;;
39324;SDS011;25037;49.488;9.900;2023-04-03T15:49:03;4.13;;;1.10;;
39324;SDS011;25037;49.488;9.900;2023-04-03T15:51:30;3.03;;;1.00;;
39324;SDS011;25037;49.488;9.900;2023-04-03T15:53:57;2.22;;;1.08;;
39324;SDS011;25037;49.488;9.900;2023-04-03T15:56:24;3.65;;;1.10;;
39324;SDS011;25037;49.488;9.900;2023-04-03T15:58:51;2.50;;;0.90;;
39324;SDS011;25037;49.488;9.900;2023-04-03T16:01:17;2.50;;;0.80;;
39324;SDS011;25037;49.488;9.900;2023-04-03T16:03:44;3.40;;;1.00;;
39324;SDS011;25037;49.488;9.900;2023-04-03T16:06:15;3.67;;;1.00;;
39324;SDS011;25037;49.488;9.900;2023-04-03T16:08:44;2.13;;;0.60;;
39324;SDS011;25037;49.488;9.900;2023-04-03T16:11:13;2.20;;;0.60;;
39324;SDS011;25037;49.488;9.900;2023-04-03T16:13:40;2.53;;;0.55;;
39324;SDS011;25037;49.488;9.900;2023-04-03T16:16:08;2.55;;;0.80;;
39324;SDS011;25037;49.488;9.900;2023-04-03T16:18:35;3.53;;;0.80;;
39324;SDS011;25037;49.488;9.900;2023-04-03T16:21:02;3.00;;;0.85;;
39324;SDS011;25037;49.488;9.900;2023-04-03T16:23:29;3.80;;;0.73;;
39324;SDS011;25037;49.488;9.900;2023-04-03T16:25:56;3.03;;;0.93;;
39324;SDS011;25037;49.488;9.900;2023-04-03T16:28:23;2.45;;;0.80;;
39324;SDS011;25037;49.488;9.900;2023-04-03T16:30:50;4.18;;;1.00;;
39324;SDS011;25037;49.488;9.900;2023-04-03T16:33:17;5.22;;;0.90;;
39324;SDS011;25037;49.488;9.900;2023-04-03T16:35:48;2.40;;;0.60;;
39324;SDS011;25037;49.488;9.900;2023-04-03T16:38:15;3.60;;;0.90;;
39324;SDS011;25037;49.488;9.900;2023-04-03T16:40:42;3.03;;;0.95;;
39324;SDS011;25037;49.488;9.900;2023-04-03T16:43:09;1.42;;;0.40;;
39324;SDS011;25037;49.488;9.900;2023-04-03T16:45:36;2.63;;;0.73;;
39324;SDS011;25037;49.488;9.900;2023-04-03T16:48:03;1.85;;;0.50;;
39324;SDS011;25037;49.488;9.900;2023-04-03T16:50:31;3.13;;;0.82;;
39324;SDS011;25037;49.488;9.900;2023-04-03T16:52:58;3.33;;;1.13;;